sensor_id;sensor_type;location;lat;lon;timestamp;temperature;humidity
32215;DHT22;18708;53.124;23.190;2024-02-28T00:01:52;9.80;99.90
32215;DHT22;18708;53.124;23.190;2024-02-28T00:04:19;9.80;99.90
32215;DHT22;18708;53.124;23.190;2024-02-28T00:06:44;9.70;99.90
32215;DHT22;18708;53.124;23.190;2024-02-28T00:09:12;9.70;99.90
32215;DHT22;18708;53.124;23.190;2024-02-28T00:11:46;9.70;99.90
32215;DHT22;18708;53.124;23.190;2024-02-28T00:14:13;9.80;99.90
32215;DHT22;18708;53.124;23.190;2024-02-28T00:16:46;9.70;99.90
32215;DHT22;18708;53.124;23.190;2024-02-28T00:19:13;9.80;99.90
32215;DHT22;18708;53.124;23.190;2024-02-28T00:21:40;9.80;99.90
32215;DHT22;18708;53.124;23.190;2024-02-28T00:24:06;9.80;99.90
32215;DHT22;18708;53.124;23.190;2024-02-28T00:26:32;9.80;99.90
32215;DHT22;18708;53.124;23.190;2024-02-28T00:28:58;9.80;99.90
32215;DHT22;18708;53.124;23.190;2024-02-28T00:31:23;9.80;99.90
32215;DHT22;18708;53.124;23.190;2024-02-28T00:33:49;9.80;99.90
32215;DHT22;18708;53.124;23.190;2024-02-28T00:36:15;9.80;99.90
32215;DHT22;18708;53.124;23.190;2024-02-28T00:38:41;9.70;99.90
32215;DHT22;18708;53.124;23.190;2024-02-28T00:41:07;9.80;99.90
32215;DHT22;18708;53.124;23.190;2024-02-28T00:43:33;9.80;99.90
32215;DHT22;18708;53.124;23.190;2024-02-28T00:45:58;9.80;99.90
32215;DHT22;18708;53.124;23.190;2024-02-28T00:48:25;9.70;99.90
32215;DHT22;18708;53.124;23.190;2024-02-28T00:50:50;9.70;99.90
32215;DHT22;18708;53.124;23.190;2024-02-28T00:53:17;9.70;99.90
32215;DHT22;18708;53.124;23.190;2024-02-28T00:55:43;9.60;99.90
32215;DHT22;18708;53.124;23.190;2024-02-28T00:58:10;9.70;99.90
32215;DHT22;18708;53.124;23.190;2024-02-28T01:00:35;9.70;99.90
32215;DHT22;18708;53.124;23.190;2024-02-28T01:03:01;9.70;99.90
32215;DHT22;18708;53.124;23.190;2024-02-28T01:05:30;9.70;99.90
32215;DHT22;18708;53.124;23.190;2024-02-28T01:07:56;9.70;99.90
32215;DHT22;18708;53.124;23.190;2024-02-28T01:10:22;9.70;99.90
32215;DHT22;18708;53.124;23.190;2024-02-28T01:12:48;9.60;99.90
32215;DHT22;18708;53.124;23.190;2024-02-28T01:15:14;9.60;99.90
32215;DHT22;18708;53.124;23.190;2024-02-28T01:17:39;9.60;99.90
32215;DHT22;18708;53.124;23.190;2024-02-28T01:20:06;9.70;99.90
32215;DHT22;18708;53.124;23.190;2024-02-28T01:22:35;9.70;99.90
32215;DHT22;18708;53.124;23.190;2024-02-28T01:25:02;9.70;99.90
32215;DHT22;18708;53.124;23.190;2024-02-28T01:27:28;9.70;99.90
32215;DHT22;18708;53.124;23.190;2024-02-28T01:29:54;9.70;99.90
32215;DHT22;18708;53.124;23.190;2024-02-28T01:32:20;9.70;99.90
32215;DHT22;18708;53.124;23.190;2024-02-28T01:34:46;9.60;99.90
32215;DHT22;18708;53.124;23.190;2024-02-28T01:37:12;9.60;99.90
32215;DHT22;18708;53.124;23.190;2024-02-28T01:39:38;9.60;99.90
32215;DHT22;18708;53.124;23.190;2024-02-28T01:42:03;9.60;99.90
32215;DHT22;18708;53.124;23.190;2024-02-28T01:44:29;9.60;99.90
32215;DHT22;18708;53.124;23.190;2024-02-28T01:46:55;9.50;99.90
32215;DHT22;18708;53.124;23.190;2024-02-28T01:49:23;9.50;99.90
32215;DHT22;18708;53.124;23.190;2024-02-28T01:51:49;9.50;99.90
32215;DHT22;18708;53.124;23.190;2024-02-28T01:54:16;9.50;99.90
32215;DHT22;18708;53.124;23.190;2024-02-28T01:56:43;9.60;99.90
32215;DHT22;18708;53.124;23.190;2024-02-28T01:59:10;9.60;99.90
32215;DHT22;18708;53.124;23.190;2024-02-28T02:01:39;9.50;99.90
32215;DHT22;18708;53.124;23.190;2024-02-28T02:04:05;9.50;99.90
32215;DHT22;18708;53.124;23.190;2024-02-28T02:06:32;9.40;99.90
32215;DHT22;18708;53.124;23.190;2024-02-28T02:08:59;9.40;99.90
32215;DHT22;18708;53.124;23.190;2024-02-28T02:11:25;9.30;99.90
32215;DHT22;18708;53.124;23.190;2024-02-28T02:13:51;9.30;99.90
32215;DHT22;18708;53.124;23.190;2024-02-28T02:16:18;9.20;99.90
32215;DHT22;18708;53.124;23.190;2024-02-28T02:18:45;9.20;99.90
32215;DHT22;18708;53.124;23.190;2024-02-28T02:21:13;9.20;99.90
32215;DHT22;18708;53.124;23.190;2024-02-28T02:23:41;9.20;99.90
32215;DHT22;18708;53.124;23.190;2024-02-28T02:26:07;9.10;99.90
32215;DHT22;18708;53.124;23.190;2024-02-28T02:28:33;9.10;99.90
32215;DHT22;18708;53.124;23.190;2024-02-28T02:30:59;9.10;99.90
32215;DHT22;18708;53.124;23.190;2024-02-28T02:33:25;9.00;99.90
32215;DHT22;18708;53.124;23.190;2024-02-28T02:35:51;9.00;99.90
32215;DHT22;18708;53.124;23.190;2024-02-28T02:38:17;9.00;99.90
32215;DHT22;18708;53.124;23.190;2024-02-28T02:40:43;9.00;99.90
32215;DHT22;18708;53.124;23.190;2024-02-28T02:43:09;9.00;99.90
32215;DHT22;18708;53.124;23.190;2024-02-28T02:45:35;9.00;99.90
32215;DHT22;18708;53.124;23.190;2024-02-28T02:48:00;8.90;99.90
32215;DHT22;18708;53.124;23.190;2024-02-28T02:50:26;8.90;99.90
32215;DHT22;18708;53.124;23.190;2024-02-28T02:52:52;8.90;99.90
32215;DHT22;18708;53.124;23.190;2024-02-28T02:55:17;8.80;99.90
32215;DHT22;18708;53.124;23.190;2024-02-28T02:57:43;8.80;99.90
32215;DHT22;18708;53.124;23.190;2024-02-28T03:00:09;8.80;99.90
32215;DHT22;18708;53.124;23.190;2024-02-28T03:02:35;8.80;99.90
32215;DHT22;18708;53.124;23.190;2024-02-28T03:05:04;8.70;99.90
32215;DHT22;18708;53.124;23.190;2024-02-28T03:07:30;8.70;99.90
32215;DHT22;18708;53.124;23.190;2024-02-28T03:09:55;8.70;99.90
32215;DHT22;18708;53.124;23.190;2024-02-28T03:12:21;8.70;99.90
32215;DHT22;18708;53.124;23.190;2024-02-28T03:14:48;8.70;99.90
32215;DHT22;18708;53.124;23.190;2024-02-28T03:17:14;8.60;99.90
32215;DHT22;18708;53.124;23.190;2024-02-28T03:19:41;8.60;99.90
32215;DHT22;18708;53.124;23.190;2024-02-28T03:22:07;8.60;99.90
32215;DHT22;18708;53.124;23.190;2024-02-28T03:24:32;8.50;99.90
32215;DHT22;18708;53.124;23.190;2024-02-28T03:27:01;8.50;99.90
32215;DHT22;18708;53.124;23.190;2024-02-28T03:29:27;8.50;99.90
32215;DHT22;18708;53.124;23.190;2024-02-28T03:31:53;8.50;99.90
32215;DHT22;18708;53.124;23.190;2024-02-28T03:34:19;8.40;99.90
32215;DHT22;18708;53.124;23.190;2024-02-28T03:36:44;8.40;99.90
32215;DHT22;18708;53.124;23.190;2024-02-28T03:39:10;8.40;99.90
32215;DHT22;18708;53.124;23.190;2024-02-28T03:41:36;8.40;99.90
32215;DHT22;18708;53.124;23.190;2024-02-28T03:44:02;8.40;99.90
32215;DHT22;18708;53.124;23.190;2024-02-28T03:46:27;8.40;99.90
32215;DHT22;18708;53.124;23.190;2024-02-28T03:48:53;8.30;99.90
32215;DHT22;18708;53.124;23.190;2024-02-28T03:51:18;8.30;99.90
32215;DHT22;18708;53.124;23.190;2024-02-28T03:53:44;8.30;99.90
32215;DHT22;18708;53.124;23.190;2024-02-28T03:56:10;8.30;99.90
32215;DHT22;18708;53.124;23.190;2024-02-28T03:58:36;8.20;99.90
32215;DHT22;18708;53.124;23.190;2024-02-28T04:01:02;8.20;99.90
32215;DHT22;18708;53.124;23.190;2024-02-28T04:03:29;8.10;99.90
32215;DHT22;18708;53.124;23.190;2024-02-28T04:05:54;8.10;99.90
32215;DHT22;18708;53.124;23.190;2024-02-28T04:08:20;8.10;99.90
32215;DHT22;18708;53.124;23.190;2024-02-28T04:10:46;8.10;99.90
32215;DHT22;18708;53.124;23.190;2024-02-28T04:13:11;8.10;99.90
32215;DHT22;18708;53.124;23.190;2024-02-28T04:15:37;8.00;99.90
32215;DHT22;18708;53.124;23.190;2024-02-28T04:18:04;8.00;99.90
32215;DHT22;18708;53.124;23.190;2024-02-28T04:20:29;8.00;99.90
32215;DHT22;18708;53.124;23.190;2024-02-28T04:22:55;8.00;99.90
32215;DHT22;18708;53.124;23.190;2024-02-28T04:25:21;7.90;99.90
32215;DHT22;18708;53.124;23.190;2024-02-28T04:27:47;7.90;99.90
32215;DHT22;18708;53.124;23.190;2024-02-28T04:30:13;7.90;99.90
32215;DHT22;18708;53.124;23.190;2024-02-28T04:32:38;7.90;99.90
32215;DHT22;18708;53.124;23.190;2024-02-28T04:35:04;7.80;99.90
32215;DHT22;18708;53.124;23.190;2024-02-28T04:37:30;7.80;99.90
32215;DHT22;18708;53.124;23.190;2024-02-28T04:39:56;7.70;99.90
32215;DHT22;18708;53.124;23.190;2024-02-28T04:42:21;7.80;99.90
32215;DHT22;18708;53.124;23.190;2024-02-28T04:44:47;7.70;99.90
32215;DHT22;18708;53.124;23.190;2024-02-28T04:47:12;7.70;99.90
32215;DHT22;18708;53.124;23.190;2024-02-28T04:49:39;7.70;99.90
32215;DHT22;18708;53.124;23.190;2024-02-28T04:52:05;7.70;99.90
32215;DHT22;18708;53.124;23.190;2024-02-28T04:54:31;7.70;99.90
32215;DHT22;18708;53.124;23.190;2024-02-28T04:56:57;7.70;99.90
32215;DHT22;18708;53.124;23.190;2024-02-28T04:59:22;7.70;99.90
32215;DHT22;18708;53.124;23.190;2024-02-28T05:01:48;7.70;99.90
32215;DHT22;18708;53.124;23.190;2024-02-28T05:04:14;7.70;99.90
32215;DHT22;18708;53.124;23.190;2024-02-28T05:06:39;7.60;99.90
32215;DHT22;18708;53.124;23.190;2024-02-28T05:09:05;7.60;99.90
32215;DHT22;18708;53.124;23.190;2024-02-28T05:11:33;7.60;99.90
32215;DHT22;18708;53.124;23.190;2024-02-28T05:13:59;7.60;99.90
32215;DHT22;18708;53.124;23.190;2024-02-28T05:16:24;7.60;99.90
32215;DHT22;18708;53.124;23.190;2024-02-28T05:18:50;7.60;99.90
32215;DHT22;18708;53.124;23.190;2024-02-28T05:21:16;7.60;99.90
32215;DHT22;18708;53.124;23.190;2024-02-28T05:23:41;7.50;99.90
32215;DHT22;18708;53.124;23.190;2024-02-28T05:26:07;7.50;99.90
32215;DHT22;18708;53.124;23.190;2024-02-28T05:28:33;7.50;99.90
32215;DHT22;18708;53.124;23.190;2024-02-28T05:31:02;7.40;99.90
32215;DHT22;18708;53.124;23.190;2024-02-28T05:33:29;7.40;99.90
32215;DHT22;18708;53.124;23.190;2024-02-28T05:35:54;7.30;99.90
32215;DHT22;18708;53.124;23.190;2024-02-28T05:38:20;7.30;99.90
32215;DHT22;18708;53.124;23.190;2024-02-28T05:40:46;7.30;99.90
32215;DHT22;18708;53.124;23.190;2024-02-28T05:43:11;7.30;99.90
32215;DHT22;18708;53.124;23.190;2024-02-28T05:45:37;7.30;99.90
32215;DHT22;18708;53.124;23.190;2024-02-28T05:48:03;7.30;99.90
32215;DHT22;18708;53.124;23.190;2024-02-28T05:50:28;7.30;99.90
32215;DHT22;18708;53.124;23.190;2024-02-28T05:52:55;7.30;99.90
32215;DHT22;18708;53.124;23.190;2024-02-28T05:55:21;7.30;99.90
32215;DHT22;18708;53.124;23.190;2024-02-28T05:57:49;7.20;99.90
32215;DHT22;18708;53.124;23.190;2024-02-28T06:00:15;7.20;99.90
32215;DHT22;18708;53.124;23.190;2024-02-28T06:02:40;7.20;99.90
32215;DHT22;18708;53.124;23.190;2024-02-28T06:05:07;7.20;99.90
32215;DHT22;18708;53.124;23.190;2024-02-28T06:23:16;7.20;99.90
32215;DHT22;18708;53.124;23.190;2024-02-28T06:25:43;7.40;99.90
32215;DHT22;18708;53.124;23.190;2024-02-28T06:28:09;7.40;99.90
32215;DHT22;18708;53.124;23.190;2024-02-28T06:30:35;7.40;99.90
32215;DHT22;18708;53.124;23.190;2024-02-28T06:33:01;7.50;99.90
32215;DHT22;18708;53.124;23.190;2024-02-28T06:35:27;7.60;99.90
32215;DHT22;18708;53.124;23.190;2024-02-28T06:37:53;7.50;99.90
32215;DHT22;18708;53.124;23.190;2024-02-28T06:40:19;7.60;99.90
32215;DHT22;18708;53.124;23.190;2024-02-28T06:42:45;7.60;99.90
32215;DHT22;18708;53.124;23.190;2024-02-28T06:45:11;7.60;99.90
32215;DHT22;18708;53.124;23.190;2024-02-28T06:47:36;7.60;99.90
32215;DHT22;18708;53.124;23.190;2024-02-28T06:50:05;7.60;99.90
32215;DHT22;18708;53.124;23.190;2024-02-28T06:52:32;7.60;99.90
32215;DHT22;18708;53.124;23.190;2024-02-28T06:54:58;7.70;99.90
32215;DHT22;18708;53.124;23.190;2024-02-28T06:57:26;7.70;99.90
32215;DHT22;18708;53.124;23.190;2024-02-28T06:59:51;7.80;99.90
32215;DHT22;18708;53.124;23.190;2024-02-28T07:02:17;7.90;99.90
32215;DHT22;18708;53.124;23.190;2024-02-28T07:04:43;8.00;99.90
32215;DHT22;18708;53.124;23.190;2024-02-28T07:07:09;8.00;99.90
32215;DHT22;18708;53.124;23.190;2024-02-28T07:09:37;8.00;99.90
32215;DHT22;18708;53.124;23.190;2024-02-28T07:12:03;8.00;99.90
32215;DHT22;18708;53.124;23.190;2024-02-28T07:14:28;8.10;99.90
32215;DHT22;18708;53.124;23.190;2024-02-28T07:16:54;8.10;99.90
32215;DHT22;18708;53.124;23.190;2024-02-28T07:19:21;8.10;99.90
32215;DHT22;18708;53.124;23.190;2024-02-28T07:21:46;8.10;99.90
32215;DHT22;18708;53.124;23.190;2024-02-28T07:24:12;8.20;99.90
32215;DHT22;18708;53.124;23.190;2024-02-28T07:26:37;8.30;99.90
32215;DHT22;18708;53.124;23.190;2024-02-28T07:29:05;8.30;99.90
32215;DHT22;18708;53.124;23.190;2024-02-28T07:31:31;8.30;99.90
32215;DHT22;18708;53.124;23.190;2024-02-28T07:33:56;8.30;99.90
32215;DHT22;18708;53.124;23.190;2024-02-28T07:36:22;8.30;99.90
32215;DHT22;18708;53.124;23.190;2024-02-28T07:38:50;8.30;99.90
32215;DHT22;18708;53.124;23.190;2024-02-28T07:41:17;8.30;99.90
32215;DHT22;18708;53.124;23.190;2024-02-28T07:43:43;8.30;99.90
32215;DHT22;18708;53.124;23.190;2024-02-28T07:46:09;8.40;99.90
32215;DHT22;18708;53.124;23.190;2024-02-28T07:48:37;8.40;99.90
32215;DHT22;18708;53.124;23.190;2024-02-28T07:51:09;8.40;99.90
32215;DHT22;18708;53.124;23.190;2024-02-28T07:53:35;8.50;99.90
32215;DHT22;18708;53.124;23.190;2024-02-28T07:56:00;8.50;99.90
32215;DHT22;18708;53.124;23.190;2024-02-28T07:58:26;8.60;99.90
32215;DHT22;18708;53.124;23.190;2024-02-28T08:00:52;8.80;99.90
32215;DHT22;18708;53.124;23.190;2024-02-28T08:03:18;8.80;99.90
32215;DHT22;18708;53.124;23.190;2024-02-28T08:05:43;8.90;99.90
32215;DHT22;18708;53.124;23.190;2024-02-28T08:08:10;9.00;99.90
32215;DHT22;18708;53.124;23.190;2024-02-28T08:10:37;9.00;99.90
32215;DHT22;18708;53.124;23.190;2024-02-28T08:13:04;9.10;99.90
32215;DHT22;18708;53.124;23.190;2024-02-28T08:15:30;9.20;99.90
32215;DHT22;18708;53.124;23.190;2024-02-28T08:17:57;9.20;99.90
32215;DHT22;18708;53.124;23.190;2024-02-28T08:20:22;9.30;99.90
32215;DHT22;18708;53.124;23.190;2024-02-28T08:22:48;9.30;99.90
32215;DHT22;18708;53.124;23.190;2024-02-28T08:25:14;9.30;99.90
32215;DHT22;18708;53.124;23.190;2024-02-28T08:27:39;9.30;99.90
32215;DHT22;18708;53.124;23.190;2024-02-28T08:30:06;9.20;99.90
32215;DHT22;18708;53.124;23.190;2024-02-28T08:32:32;9.30;99.90
32215;DHT22;18708;53.124;23.190;2024-02-28T08:34:58;9.30;99.90
32215;DHT22;18708;53.124;23.190;2024-02-28T08:37:24;9.40;99.90
32215;DHT22;18708;53.124;23.190;2024-02-28T08:39:50;9.40;99.90
32215;DHT22;18708;53.124;23.190;2024-02-28T08:42:16;9.40;99.90
32215;DHT22;18708;53.124;23.190;2024-02-28T08:44:41;9.30;99.90
32215;DHT22;18708;53.124;23.190;2024-02-28T08:47:07;9.40;99.90
32215;DHT22;18708;53.124;23.190;2024-02-28T08:49:34;10.00;99.90
32215;DHT22;18708;53.124;23.190;2024-02-28T08:52:01;10.10;99.90
32215;DHT22;18708;53.124;23.190;2024-02-28T08:54:27;10.10;99.90
32215;DHT22;18708;53.124;23.190;2024-02-28T08:56:53;10.20;99.90
32215;DHT22;18708;53.124;23.190;2024-02-28T08:59:19;10.00;99.90
32215;DHT22;18708;53.124;23.190;2024-02-28T09:01:45;9.90;99.90
32215;DHT22;18708;53.124;23.190;2024-02-28T09:04:10;10.10;99.90
32215;DHT22;18708;53.124;23.190;2024-02-28T09:06:36;10.00;99.90
32215;DHT22;18708;53.124;23.190;2024-02-28T09:09:02;10.30;99.90
32215;DHT22;18708;53.124;23.190;2024-02-28T09:11:29;10.70;99.90
32215;DHT22;18708;53.124;23.190;2024-02-28T09:13:54;10.80;99.90
32215;DHT22;18708;53.124;23.190;2024-02-28T09:16:20;11.20;99.90
32215;DHT22;18708;53.124;23.190;2024-02-28T09:18:46;10.90;99.90
32215;DHT22;18708;53.124;23.190;2024-02-28T09:21:12;10.90;99.90
32215;DHT22;18708;53.124;23.190;2024-02-28T09:23:37;10.60;99.90
32215;DHT22;18708;53.124;23.190;2024-02-28T09:26:06;10.90;99.90
32215;DHT22;18708;53.124;23.190;2024-02-28T09:28:32;11.00;99.90
32215;DHT22;18708;53.124;23.190;2024-02-28T09:30:58;10.90;99.90
32215;DHT22;18708;53.124;23.190;2024-02-28T09:33:23;10.60;99.90
32215;DHT22;18708;53.124;23.190;2024-02-28T09:35:49;10.70;99.90
32215;DHT22;18708;53.124;23.190;2024-02-28T09:38:15;10.80;99.90
32215;DHT22;18708;53.124;23.190;2024-02-28T09:40:41;10.60;99.90
32215;DHT22;18708;53.124;23.190;2024-02-28T09:43:14;10.90;99.90
32215;DHT22;18708;53.124;23.190;2024-02-28T09:45:40;11.30;99.90
32215;DHT22;18708;53.124;23.190;2024-02-28T09:48:07;11.20;99.90
32215;DHT22;18708;53.124;23.190;2024-02-28T09:50:35;11.00;99.90
32215;DHT22;18708;53.124;23.190;2024-02-28T09:53:01;10.90;99.90
32215;DHT22;18708;53.124;23.190;2024-02-28T09:55:26;10.70;99.90
32215;DHT22;18708;53.124;23.190;2024-02-28T09:57:53;10.90;99.90
32215;DHT22;18708;53.124;23.190;2024-02-28T10:00:20;10.80;99.90
32215;DHT22;18708;53.124;23.190;2024-02-28T10:02:47;10.70;99.90
32215;DHT22;18708;53.124;23.190;2024-02-28T10:05:14;10.60;99.90
32215;DHT22;18708;53.124;23.190;2024-02-28T10:07:41;10.70;99.90
32215;DHT22;18708;53.124;23.190;2024-02-28T10:10:07;11.00;99.90
32215;DHT22;18708;53.124;23.190;2024-02-28T10:12:42;11.50;99.90
32215;DHT22;18708;53.124;23.190;2024-02-28T10:15:10;11.70;99.90
32215;DHT22;18708;53.124;23.190;2024-02-28T10:17:36;11.60;99.90
32215;DHT22;18708;53.124;23.190;2024-02-28T10:20:01;11.40;99.90
32215;DHT22;18708;53.124;23.190;2024-02-28T10:22:34;11.50;99.90
32215;DHT22;18708;53.124;23.190;2024-02-28T10:25:01;11.70;99.90
32215;DHT22;18708;53.124;23.190;2024-02-28T10:27:26;11.80;99.90
32215;DHT22;18708;53.124;23.190;2024-02-28T10:29:52;11.80;99.90
32215;DHT22;18708;53.124;23.190;2024-02-28T10:32:18;12.30;99.90
32215;DHT22;18708;53.124;23.190;2024-02-28T10:34:44;12.40;99.90
32215;DHT22;18708;53.124;23.190;2024-02-28T10:37:12;12.60;99.90
32215;DHT22;18708;53.124;23.190;2024-02-28T10:39:38;13.30;99.90
32215;DHT22;18708;53.124;23.190;2024-02-28T10:42:04;13.80;99.90
32215;DHT22;18708;53.124;23.190;2024-02-28T10:44:32;15.00;99.90
32215;DHT22;18708;53.124;23.190;2024-02-28T10:47:00;14.70;99.90
32215;DHT22;18708;53.124;23.190;2024-02-28T10:49:27;14.00;99.90
32215;DHT22;18708;53.124;23.190;2024-02-28T10:51:56;14.00;99.90
32215;DHT22;18708;53.124;23.190;2024-02-28T10:54:25;14.30;99.90
32215;DHT22;18708;53.124;23.190;2024-02-28T10:56:53;14.30;99.90
32215;DHT22;18708;53.124;23.190;2024-02-28T10:59:21;13.80;99.90
32215;DHT22;18708;53.124;23.190;2024-02-28T11:01:48;13.80;99.90
32215;DHT22;18708;53.124;23.190;2024-02-28T11:04:16;13.60;99.90
32215;DHT22;18708;53.124;23.190;2024-02-28T11:06:50;13.20;99.90
32215;DHT22;18708;53.124;23.190;2024-02-28T11:09:20;13.40;99.90
32215;DHT22;18708;53.124;23.190;2024-02-28T11:11:48;13.40;99.90
32215;DHT22;18708;53.124;23.190;2024-02-28T11:14:15;13.50;99.90
32215;DHT22;18708;53.124;23.190;2024-02-28T11:16:41;13.40;99.90
32215;DHT22;18708;53.124;23.190;2024-02-28T11:19:20;13.60;99.90
32215;DHT22;18708;53.124;23.190;2024-02-28T11:21:53;13.00;99.90
32215;DHT22;18708;53.124;23.190;2024-02-28T11:24:23;13.10;99.90
32215;DHT22;18708;53.124;23.190;2024-02-28T11:26:51;13.50;99.90
32215;DHT22;18708;53.124;23.190;2024-02-28T11:29:26;13.40;99.90
32215;DHT22;18708;53.124;23.190;2024-02-28T11:31:52;13.30;99.90
32215;DHT22;18708;53.124;23.190;2024-02-28T11:34:18;13.10;99.90
32215;DHT22;18708;53.124;23.190;2024-02-28T11:36:47;13.20;99.90
32215;DHT22;18708;53.124;23.190;2024-02-28T11:39:15;13.20;99.90
32215;DHT22;18708;53.124;23.190;2024-02-28T11:41:41;13.20;99.90
32215;DHT22;18708;53.124;23.190;2024-02-28T11:44:06;13.20;99.90
32215;DHT22;18708;53.124;23.190;2024-02-28T11:46:32;13.30;99.90
32215;DHT22;18708;53.124;23.190;2024-02-28T11:49:00;13.20;99.90
32215;DHT22;18708;53.124;23.190;2024-02-28T11:51:26;13.00;99.90
32215;DHT22;18708;53.124;23.190;2024-02-28T11:53:52;12.90;99.90
32215;DHT22;18708;53.124;23.190;2024-02-28T11:56:17;12.90;99.90
32215;DHT22;18708;53.124;23.190;2024-02-28T11:58:50;13.00;99.90
32215;DHT22;18708;53.124;23.190;2024-02-28T12:01:16;13.00;99.90
32215;DHT22;18708;53.124;23.190;2024-02-28T12:03:45;13.00;99.90
32215;DHT22;18708;53.124;23.190;2024-02-28T12:06:11;13.00;99.90
32215;DHT22;18708;53.124;23.190;2024-02-28T12:08:37;12.80;99.90
32215;DHT22;18708;53.124;23.190;2024-02-28T12:11:07;12.90;99.90
32215;DHT22;18708;53.124;23.190;2024-02-28T12:13:33;12.70;99.90
32215;DHT22;18708;53.124;23.190;2024-02-28T12:16:01;12.70;99.90
32215;DHT22;18708;53.124;23.190;2024-02-28T12:18:27;12.80;99.90
32215;DHT22;18708;53.124;23.190;2024-02-28T12:20:55;12.70;99.90
32215;DHT22;18708;53.124;23.190;2024-02-28T12:23:21;12.70;99.90
32215;DHT22;18708;53.124;23.190;2024-02-28T12:25:47;12.70;99.90
32215;DHT22;18708;53.124;23.190;2024-02-28T12:28:13;12.70;99.90
32215;DHT22;18708;53.124;23.190;2024-02-28T12:30:42;12.70;99.90
32215;DHT22;18708;53.124;23.190;2024-02-28T12:33:09;12.60;99.90
32215;DHT22;18708;53.124;23.190;2024-02-28T12:35:37;12.60;99.90
32215;DHT22;18708;53.124;23.190;2024-02-28T12:38:02;12.60;99.90
32215;DHT22;18708;53.124;23.190;2024-02-28T12:40:28;12.60;99.90
32215;DHT22;18708;53.124;23.190;2024-02-28T12:42:54;12.60;99.90
32215;DHT22;18708;53.124;23.190;2024-02-28T12:45:19;12.70;99.90
32215;DHT22;18708;53.124;23.190;2024-02-28T12:47:45;12.60;99.90
32215;DHT22;18708;53.124;23.190;2024-02-28T12:50:11;12.60;99.90
32215;DHT22;18708;53.124;23.190;2024-02-28T12:52:36;12.60;99.90
32215;DHT22;18708;53.124;23.190;2024-02-28T12:55:02;12.70;99.90
32215;DHT22;18708;53.124;23.190;2024-02-28T12:57:28;12.70;99.90
32215;DHT22;18708;53.124;23.190;2024-02-28T12:59:54;12.60;99.90
32215;DHT22;18708;53.124;23.190;2024-02-28T13:02:21;12.70;99.90
32215;DHT22;18708;53.124;23.190;2024-02-28T13:04:47;12.80;99.90
32215;DHT22;18708;53.124;23.190;2024-02-28T13:07:14;12.70;99.90
32215;DHT22;18708;53.124;23.190;2024-02-28T13:09:40;12.70;99.90
32215;DHT22;18708;53.124;23.190;2024-02-28T13:12:06;12.70;99.90
32215;DHT22;18708;53.124;23.190;2024-02-28T13:14:32;12.60;99.90
32215;DHT22;18708;53.124;23.190;2024-02-28T13:16:59;12.60;99.90
32215;DHT22;18708;53.124;23.190;2024-02-28T13:19:24;12.50;99.90
32215;DHT22;18708;53.124;23.190;2024-02-28T13:21:50;12.50;99.90
32215;DHT22;18708;53.124;23.190;2024-02-28T13:24:16;12.60;99.90
32215;DHT22;18708;53.124;23.190;2024-02-28T13:26:42;12.60;99.90
32215;DHT22;18708;53.124;23.190;2024-02-28T13:29:08;12.50;99.90
32215;DHT22;18708;53.124;23.190;2024-02-28T13:31:34;12.40;99.90
32215;DHT22;18708;53.124;23.190;2024-02-28T13:34:00;12.20;99.90
32215;DHT22;18708;53.124;23.190;2024-02-28T13:36:28;12.10;99.90
32215;DHT22;18708;53.124;23.190;2024-02-28T13:38:55;12.00;99.90
32215;DHT22;18708;53.124;23.190;2024-02-28T13:41:21;12.10;99.90
32215;DHT22;18708;53.124;23.190;2024-02-28T13:43:47;12.00;99.90
32215;DHT22;18708;53.124;23.190;2024-02-28T13:46:13;12.10;99.90
32215;DHT22;18708;53.124;23.190;2024-02-28T13:48:39;12.10;99.90
32215;DHT22;18708;53.124;23.190;2024-02-28T13:51:05;12.10;99.90
32215;DHT22;18708;53.124;23.190;2024-02-28T13:53:31;12.00;99.90
32215;DHT22;18708;53.124;23.190;2024-02-28T13:55:57;12.10;99.90
32215;DHT22;18708;53.124;23.190;2024-02-28T13:58:22;12.10;99.90
32215;DHT22;18708;53.124;23.190;2024-02-28T14:00:48;12.10;99.90
32215;DHT22;18708;53.124;23.190;2024-02-28T14:03:14;12.10;99.90
32215;DHT22;18708;53.124;23.190;2024-02-28T14:05:40;12.10;99.90
32215;DHT22;18708;53.124;23.190;2024-02-28T14:08:06;12.20;99.90
32215;DHT22;18708;53.124;23.190;2024-02-28T14:10:34;12.20;99.90
32215;DHT22;18708;53.124;23.190;2024-02-28T14:13:00;12.20;99.90
32215;DHT22;18708;53.124;23.190;2024-02-28T14:15:26;12.20;99.90
32215;DHT22;18708;53.124;23.190;2024-02-28T14:17:52;12.20;99.90
32215;DHT22;18708;53.124;23.190;2024-02-28T14:20:18;12.10;99.90
32215;DHT22;18708;53.124;23.190;2024-02-28T14:22:44;12.00;99.90
32215;DHT22;18708;53.124;23.190;2024-02-28T14:25:14;12.00;99.90
32215;DHT22;18708;53.124;23.190;2024-02-28T14:27:42;12.00;99.90
32215;DHT22;18708;53.124;23.190;2024-02-28T14:30:09;11.90;99.90
32215;DHT22;18708;53.124;23.190;2024-02-28T14:32:38;12.00;99.90
32215;DHT22;18708;53.124;23.190;2024-02-28T14:35:05;12.00;99.90
32215;DHT22;18708;53.124;23.190;2024-02-28T14:37:32;11.80;99.90
32215;DHT22;18708;53.124;23.190;2024-02-28T14:39:59;11.90;99.90
32215;DHT22;18708;53.124;23.190;2024-02-28T14:42:30;11.80;99.90
32215;DHT22;18708;53.124;23.190;2024-02-28T15:02:37;11.70;99.90
32215;DHT22;18708;53.124;23.190;2024-02-28T15:05:04;11.80;99.90
32215;DHT22;18708;53.124;23.190;2024-02-28T15:07:32;11.80;99.90
32215;DHT22;18708;53.124;23.190;2024-02-28T15:09:58;11.80;99.90
32215;DHT22;18708;53.124;23.190;2024-02-28T15:12:28;11.80;99.90
32215;DHT22;18708;53.124;23.190;2024-02-28T15:14:55;11.80;99.90
32215;DHT22;18708;53.124;23.190;2024-02-28T15:17:21;11.80;99.90
32215;DHT22;18708;53.124;23.190;2024-02-28T15:19:47;11.70;99.90
32215;DHT22;18708;53.124;23.190;2024-02-28T15:22:13;11.80;99.90
32215;DHT22;18708;53.124;23.190;2024-02-28T15:24:39;11.70;99.90
32215;DHT22;18708;53.124;23.190;2024-02-28T15:27:06;11.60;99.90
32215;DHT22;18708;53.124;23.190;2024-02-28T15:29:32;11.70;99.90
32215;DHT22;18708;53.124;23.190;2024-02-28T15:31:58;11.60;99.90
32215;DHT22;18708;53.124;23.190;2024-02-28T15:34:24;11.60;99.90
32215;DHT22;18708;53.124;23.190;2024-02-28T15:36:49;11.60;99.90
32215;DHT22;18708;53.124;23.190;2024-02-28T15:39:15;11.60;99.90
32215;DHT22;18708;53.124;23.190;2024-02-28T15:41:41;11.60;99.90
32215;DHT22;18708;53.124;23.190;2024-02-28T15:44:07;11.60;99.90
32215;DHT22;18708;53.124;23.190;2024-02-28T15:46:33;11.50;99.90
32215;DHT22;18708;53.124;23.190;2024-02-28T15:48:58;11.60;99.90
32215;DHT22;18708;53.124;23.190;2024-02-28T15:51:24;11.60;99.90
32215;DHT22;18708;53.124;23.190;2024-02-28T15:53:50;11.60;99.90